Aleppo, Syria
Current Conditions -  °F | °C
As of 2:50 AM on Thursday 23 Oct 2014 (Local Time) from LTDA Reporting Station
Broken Clouds Broken Clouds  
Wind Chill: 64°   Ceiling: 10000
Heat Index: 64°   Visibility: 6mi
Dew Point: 50°   Wind: 9mph
Humidity: 59%   Direction: 50°NE
Pressure: 30.06"   Gusts: NA
Location:  36.23°N, 37.17°E
Report Text: LTDA 222350Z 05008KT 9999 SCT035 BKN100 18/10 Q1018
Loading
Personal Weather Stations






























Interactive Weather Map
Tropical Storm Tracking
New forecast layout! Learn more

10-Day Weather Forecast

Advertisements
Track Severe Weather on mobile